Main page
Satellite images 15-day forecastsClimateMarine weather Cyclones Lightning AirportsFAQ Newsletter About
Weather : Europe Africa North America South America Asia Australia-Oceania Others
Languages Contact

Baia Mare, Romania

latitude: 47-40N, longitude: 023-35E, elevation: 218 m


METAR: LRBM 200930Z 10004KT 010V140 CAVOK 15/10 Q1020
TAF: LRBM 200800Z 2009/2018 VRB04KT CAVOK

Time: 12:40 (09:40 UTC)

Current weather observation

The report was made 10 minutes ago, at 09:30 UTC  
Wind 04 kt from the East, varying between North and Southeast
Temperature 15°C
Humidity 72%
Pressure 1020 hPa
Visibility 10 km or more
no clouds below 1500 m and no cumulonimbus

Change units

Forecast

The report was made 01 hour and 40 minutes ago, at 08:00 UTC  
Forecast valid from 20 at 09 UTC to 20 at 18 UTC
Wind 04 kt from variable directions
Visibility 10 km or more
no clouds below 1500 m and no cumulonimbus
The information on this site is subject to a disclaimer
Weather : Europe Africa North America South America Asia Australia-Oceania Others
Satellite images 15-day forecastsClimateMarine weather Cyclones Lightning AirportsFAQ Languages Contact Newsletter About